Time;durP1;ratioP1;P1;durP2;ratioP2;P2;SDS_P1;SDS_P2;PMS_P1;PMS_P2;Temp;Humidity;BMP_temperature;BMP_pressure;BME280_temperature;BME280_humidity;BME280_pressure;Samples;Min_cycle;Max_cycle;Signal;HPM_P1;HPM_P2
2023/03/08 00:02:06;;;;;;;23.63;21.63;;;;;;;;;;5112483;28;20106;-64
2023/03/08 00:04:33;;;;;;;23.85;21.85;;;;;;;;;;5112252;28;20032;-61
2023/03/08 00:06:59;;;;;;;25.10;22.90;;;;;;;;;;5112369;28;20099;-62
2023/03/08 00:09:25;;;;;;;23.17;21.17;;;;;;;;;;5094056;28;20123;-62
2023/03/08 00:11:51;;;;;;;23.05;21.05;;;;;;;;;;5112463;28;20031;-65
2023/03/08 00:14:23;;;;;;;23.33;21.33;;;;;;;;;;5112952;28;20037;-63
2023/03/08 00:16:49;;;;;;;23.13;21.13;;;;;;;;;;5096103;28;20509;-64
2023/03/08 00:19:15;;;;;;;23.48;21.48;;;;;;;;;;5096749;28;20027;-65
2023/03/08 00:21:41;;;;;;;22.55;20.55;;;;;;;;;;5115343;28;20119;-64
2023/03/08 00:24:07;;;;;;;22.55;20.55;;;;;;;;;;5096484;28;20015;-64
2023/03/08 00:26:33;;;;;;;22.50;20.50;;;;;;;;;;5115097;28;20030;-65
2023/03/08 00:28:59;;;;;;;22.75;20.75;;;;;;;;;;5113277;28;20020;-63
2023/03/08 00:31:25;;;;;;;23.40;21.40;;;;;;;;;;5110992;28;20086;-64
2023/03/08 00:33:53;;;;;;;22.65;20.65;;;;;;;;;;5097951;28;20419;-65
2023/03/08 00:36:19;;;;;;;22.45;20.45;;;;;;;;;;5115433;28;20123;-63
2023/03/08 00:38:46;;;;;;;22.63;20.63;;;;;;;;;;5115308;28;20024;-63
2023/03/08 00:41:12;;;;;;;22.33;20.33;;;;;;;;;;5096917;28;20097;-65
2023/03/08 00:43:41;;;;;;;23.20;21.20;;;;;;;;;;5096813;28;20020;-65
2023/03/08 00:46:06;;;;;;;;;;;;;;;;;;5097839;28;20020;-64
2023/03/08 00:48:32;;;;;;;22.70;20.70;;;;;;;;;;5105184;28;19904;-63
2023/03/08 00:50:58;;;;;;;22.27;20.27;;;;;;;;;;5113696;28;20480;-62
2023/03/08 00:53:25;;;;;;;22.50;20.50;;;;;;;;;;5113569;28;20051;-64
2023/03/08 00:55:52;;;;;;;23.10;21.00;;;;;;;;;;5115256;28;20133;-64
2023/03/08 00:58:18;;;;;;;22.20;20.20;;;;;;;;;;5113712;28;20027;-63
2023/03/08 01:00:44;;;;;;;22.15;20.15;;;;;;;;;;5112566;28;20530;-63
2023/03/08 01:03:11;;;;;;;22.45;20.45;;;;;;;;;;5095955;28;20159;-63
2023/03/08 01:05:40;;;;;;;22.63;20.63;;;;;;;;;;5115164;28;20027;-64
2023/03/08 01:08:06;;;;;;;22.73;20.73;;;;;;;;;;5096451;28;20020;-63
2023/03/08 01:10:32;;;;;;;22.00;20.00;;;;;;;;;;5097103;28;20058;-63
2023/03/08 01:12:58;;;;;;;22.80;20.80;;;;;;;;;;5096762;28;20015;-59
2023/03/08 01:15:24;;;;;;;21.55;19.65;;;;;;;;;;5096352;28;20023;-64
2023/03/08 01:17:50;;;;;;;20.90;19.00;;;;;;;;;;5114772;28;20070;-63
2023/03/08 01:20:16;;;;;;;20.30;18.40;;;;;;;;;;5096241;28;20032;-63
2023/03/08 01:22:42;;;;;;;20.30;18.40;;;;;;;;;;5114814;28;20031;-64
2023/03/08 01:25:08;;;;;;;20.50;18.60;;;;;;;;;;5114278;28;20373;-62
2023/03/08 01:27:34;;;;;;;20.50;18.60;;;;;;;;;;5096381;28;20028;-64
2023/03/08 01:30:00;;;;;;;19.90;18.00;;;;;;;;;;5096576;28;20069;-63
2023/03/08 01:32:26;;;;;;;20.25;18.35;;;;;;;;;;5114763;28;20475;-65
2023/03/08 01:34:52;;;;;;;19.75;17.85;;;;;;;;;;5114686;28;20102;-64
2023/03/08 01:37:18;;;;;;;20.27;18.38;;;;;;;;;;5096383;28;20455;-64
2023/03/08 01:39:44;;;;;;;19.27;17.48;;;;;;;;;;5114325;28;20028;-65
2023/03/08 01:42:10;;;;;;;19.67;17.77;;;;;;;;;;5114700;28;20031;-65
2023/03/08 01:44:49;;;;;;;19.63;17.77;;;;;;;;;;5095690;28;20510;-64
2023/03/08 01:47:20;;;;;;;19.67;17.77;;;;;;;;;;5114421;28;20062;-64
2023/03/08 01:49:46;;;;;;;20.10;18.20;;;;;;;;;;5114093;28;20039;-64
2023/03/08 01:52:15;;;;;;;20.30;18.40;;;;;;;;;;5095976;28;20114;-65
2023/03/08 01:54:41;;;;;;;19.95;18.05;;;;;;;;;;5094135;28;20020;-65
2023/03/08 01:57:14;;;;;;;21.48;19.48;;;;;;;;;;5112790;28;20034;-65
2023/03/08 01:59:41;;;;;;;20.35;18.45;;;;;;;;;;5098507;28;20020;-64
2023/03/08 02:02:07;;;;;;;19.73;17.83;;;;;;;;;;5113734;28;20514;-63
2023/03/08 02:04:33;;;;;;;19.88;17.98;;;;;;;;;;5095252;28;20023;-64
2023/03/08 02:06:59;;;;;;;19.77;17.88;;;;;;;;;;5114041;28;20019;-63
2023/03/08 02:09:25;;;;;;;19.15;17.35;;;;;;;;;;5113748;28;20146;-64
2023/03/08 02:11:51;;;;;;;18.83;17.02;;;;;;;;;;5113895;28;20027;-62
2023/03/08 02:14:17;;;;;;;19.10;17.30;;;;;;;;;;5094647;28;20034;-63
2023/03/08 02:16:43;;;;;;;18.83;17.02;;;;;;;;;;5095432;28;20114;-64
2023/03/08 02:19:16;;;;;;;18.55;16.75;;;;;;;;;;5096471;28;20488;-63
2023/03/08 02:21:42;;;;;;;34.22;20.00;;;;;;;;;;5113560;28;20027;-63
2023/03/08 02:24:19;;;;;;;17.77;15.98;;;;;;;;;;5113043;28;20031;-64
2023/03/08 02:26:46;;;;;;;16.85;15.15;;;;;;;;;;5113406;28;20077;-64
2023/03/08 02:29:12;;;;;;;16.90;15.20;;;;;;;;;;5113382;28;20055;-64
2023/03/08 02:31:38;;;;;;;18.52;16.65;;;;;;;;;;5113295;28;20059;-64
2023/03/08 02:34:04;;;;;;;16.90;15.20;;;;;;;;;;5113117;28;20111;-63
2023/03/08 02:36:30;;;;;;;18.15;16.35;;;;;;;;;;5112278;28;20059;-64
2023/03/08 02:38:56;;;;;;;17.17;15.43;;;;;;;;;;5113362;28;20034;-64
2023/03/08 02:41:22;;;;;;;16.90;15.20;;;;;;;;;;5112050;28;20032;-63
2023/03/08 02:43:48;;;;;;;17.48;15.68;;;;;;;;;;5112780;28;20115;-64
2023/03/08 02:46:14;;;;;;;19.67;17.73;;;;;;;;;;5113124;28;20047;-65
2023/03/08 02:48:40;;;;;;;17.70;15.90;;;;;;;;;;5113184;28;20031;-64
2023/03/08 02:51:06;;;;;;;19.98;18.08;;;;;;;;;;5112811;28;20027;-64
2023/03/08 02:53:32;;;;;;;19.00;17.10;;;;;;;;;;5112757;28;20091;-65
2023/03/08 02:55:58;;;;;;;17.02;15.32;;;;;;;;;;5111796;28;20019;-63
2023/03/08 02:58:24;;;;;;;18.20;16.30;;;;;;;;;;5113163;28;20027;-60
2023/03/08 03:00:50;;;;;;;16.58;14.88;;;;;;;;;;5113402;28;20024;-63
2023/03/08 03:03:16;;;;;;;16.60;14.90;;;;;;;;;;5111312;28;20357;-63
2023/03/08 03:05:43;;;;;;;16.40;14.70;;;;;;;;;;5111154;28;20032;-64
2023/03/08 03:08:10;;;;;;;16.38;14.68;;;;;;;;;;5102468;28;20045;-60
2023/03/08 03:10:36;;;;;;;16.48;14.77;;;;;;;;;;5112803;28;20028;-64
2023/03/08 03:13:02;;;;;;;22.88;16.38;;;;;;;;;;5112259;28;20024;-62
2023/03/08 03:15:28;;;;;;;16.63;14.93;;;;;;;;;;5107159;28;20024;-62
2023/03/08 03:17:54;;;;;;;16.58;14.88;;;;;;;;;;5111425;28;20039;-65
2023/03/08 03:20:20;;;;;;;16.35;14.65;;;;;;;;;;5112555;28;20031;-65
2023/03/08 03:22:46;;;;;;;16.52;14.82;;;;;;;;;;5111424;28;20024;-65
2023/03/08 03:25:12;;;;;;;15.98;14.27;;;;;;;;;;5112014;28;20399;-64
2023/03/08 03:27:38;;;;;;;23.88;16.00;;;;;;;;;;5118698;28;20103;-65
2023/03/08 03:30:06;;;;;;;17.15;15.45;;;;;;;;;;5119086;28;20039;-62
2023/03/08 03:32:32;;;;;;;17.48;15.68;;;;;;;;;;5119129;28;20471;-64
2023/03/08 03:34:58;;;;;;;16.88;15.18;;;;;;;;;;5119020;28;20487;-61
2023/03/08 03:37:24;;;;;;;16.85;15.15;;;;;;;;;;5119159;28;20024;-65
2023/03/08 03:39:50;;;;;;;18.25;16.35;;;;;;;;;;5119228;27;20399;-63
2023/03/08 03:42:16;;;;;;;16.77;15.07;;;;;;;;;;5119452;27;20030;-62
2023/03/08 03:44:42;;;;;;;16.65;14.95;;;;;;;;;;5118932;27;20024;-64
2023/03/08 03:47:08;;;;;;;17.50;15.75;;;;;;;;;;5119456;28;20046;-65
2023/03/08 03:49:34;;;;;;;16.75;15.05;;;;;;;;;;5117984;28;20081;-64
2023/03/08 03:52:00;;;;;;;17.45;15.60;;;;;;;;;;5119166;28;20024;-63
2023/03/08 03:54:26;;;;;;;18.40;16.50;;;;;;;;;;5117740;28;20035;-63
2023/03/08 03:56:54;;;;;;;18.23;16.42;;;;;;;;;;5119146;28;20059;-63
2023/03/08 03:59:20;;;;;;;17.40;15.60;;;;;;;;;;5118317;28;20031;-65
2023/03/08 04:01:46;;;;;;;17.25;15.45;;;;;;;;;;5119402;28;20706;-65
2023/03/08 04:04:12;;;;;;;17.70;15.90;;;;;;;;;;5117650;28;20032;-66
2023/03/08 04:06:38;;;;;;;17.42;15.63;;;;;;;;;;5117854;28;20047;-64
2023/03/08 04:09:05;;;;;;;17.15;15.38;;;;;;;;;;5119148;28;20032;-64
2023/03/08 04:11:32;;;;;;;17.23;15.43;;;;;;;;;;5118003;28;20112;-64
2023/03/08 04:13:59;;;;;;;17.13;15.32;;;;;;;;;;5117627;28;20490;-65
2023/03/08 04:16:26;;;;;;;17.08;15.30;;;;;;;;;;5118790;28;20034;-65
2023/03/08 04:18:54;;;;;;;17.33;15.52;;;;;;;;;;5118722;28;20435;-62
2023/03/08 04:21:20;;;;;;;17.42;15.63;;;;;;;;;;5117649;28;20400;-64
2023/03/08 04:23:46;;;;;;;18.25;16.45;;;;;;;;;;5118641;28;20023;-64
2023/03/08 04:26:12;;;;;;;18.15;16.35;;;;;;;;;;5118645;28;20030;-63
2023/03/08 04:28:38;;;;;;;19.10;17.30;;;;;;;;;;5118830;28;20095;-64
2023/03/08 04:31:18;;;;;;;19.67;17.77;;;;;;;;;;5118946;28;20037;-63
2023/03/08 04:33:44;;;;;;;17.90;16.10;;;;;;;;;;5116948;28;20027;-65
2023/03/08 04:36:11;;;;;;;17.48;15.68;;;;;;;;;;5118425;28;20016;-64
2023/03/08 04:38:38;;;;;;;18.02;16.23;;;;;;;;;;5114386;28;20030;-64
2023/03/08 04:41:09;;;;;;;17.60;15.80;;;;;;;;;;5115182;28;20078;-65
2023/03/08 04:43:35;;;;;;;17.42;15.63;;;;;;;;;;5115150;28;20047;-64
2023/03/08 04:46:01;;;;;;;17.50;15.70;;;;;;;;;;5115473;28;20429;-65
2023/03/08 04:48:27;;;;;;;17.73;15.93;;;;;;;;;;5115189;28;20024;-64
2023/03/08 04:50:57;;;;;;;17.70;15.90;;;;;;;;;;5115480;28;20072;-63
2023/03/08 04:53:23;;;;;;;17.77;15.98;;;;;;;;;;5114641;28;20024;-65
2023/03/08 04:55:50;;;;;;;18.02;16.23;;;;;;;;;;5115401;28;20035;-64
2023/03/08 04:58:16;;;;;;;19.42;17.63;;;;;;;;;;5114649;28;20046;-65
2023/03/08 05:00:42;;;;;;;18.60;16.80;;;;;;;;;;5114554;28;20049;-62
2023/03/08 05:03:09;;;;;;;18.77;16.98;;;;;;;;;;5112929;28;20030;-65
2023/03/08 05:05:35;;;;;;;18.70;16.90;;;;;;;;;;5114559;28;20038;-64
2023/03/08 05:08:04;;;;;;;19.15;17.35;;;;;;;;;;5114507;28;20053;-64
2023/03/08 05:10:30;;;;;;;18.95;17.15;;;;;;;;;;5114523;28;20020;-65
2023/03/08 05:12:56;;;;;;;18.95;17.15;;;;;;;;;;5114733;28;20020;-63
2023/03/08 05:15:22;;;;;;;20.08;18.17;;;;;;;;;;5114475;28;20081;-64
2023/03/08 05:17:49;;;;;;;21.00;19.10;;;;;;;;;;5105396;28;20055;-64
2023/03/08 05:20:15;;;;;;;19.63;17.73;;;;;;;;;;5108198;28;20122;-65
2023/03/08 05:22:41;;;;;;;19.95;18.05;;;;;;;;;;5114783;28;20034;-64
2023/03/08 05:25:07;;;;;;;19.38;17.55;;;;;;;;;;5095404;28;20024;-64
2023/03/08 05:27:33;;;;;;;26.90;18.98;;;;;;;;;;5095765;28;20023;-64
2023/03/08 05:29:59;;;;;;;20.33;18.42;;;;;;;;;;5096278;28;20425;-66
2023/03/08 05:32:25;;;;;;;19.23;17.42;;;;;;;;;;5099466;28;20016;-63
2023/03/08 05:34:52;;;;;;;20.70;18.77;;;;;;;;;;5113772;28;20504;-65
2023/03/08 05:37:18;;;;;;;19.55;17.67;;;;;;;;;;5095969;28;20114;-65
2023/03/08 05:39:44;;;;;;;19.58;17.73;;;;;;;;;;5095671;28;20023;-65
2023/03/08 05:42:11;;;;;;;20.70;18.73;;;;;;;;;;5113817;28;20120;-65
2023/03/08 05:44:37;;;;;;;19.13;17.33;;;;;;;;;;5095380;28;20028;-64
2023/03/08 05:47:03;;;;;;;22.48;20.48;;;;;;;;;;5114800;28;20019;-65
2023/03/08 05:49:29;;;;;;;20.10;18.20;;;;;;;;;;5108789;28;20024;-64
2023/03/08 05:51:56;;;;;;;19.63;17.73;;;;;;;;;;5109799;28;20027;-62
2023/03/08 05:54:22;;;;;;;19.30;17.50;;;;;;;;;;5075775;28;20027;-65
2023/03/08 05:56:47;;;;;;;19.65;17.75;;;;;;;;;;5102637;28;20456;-64
2023/03/08 05:59:13;;;;;;;20.00;18.10;;;;;;;;;;5113438;28;20054;-64
2023/03/08 06:01:39;;;;;;;19.35;17.55;;;;;;;;;;5113592;28;20031;-66
2023/03/08 06:04:05;;;;;;;19.30;17.50;;;;;;;;;;5094934;28;20020;-60
2023/03/08 06:06:31;;;;;;;19.23;17.42;;;;;;;;;;5093713;28;20020;-65
2023/03/08 06:08:57;;;;;;;19.10;17.30;;;;;;;;;;5074721;28;20096;-65
2023/03/08 06:11:23;;;;;;;19.40;17.60;;;;;;;;;;5093066;28;20365;-63
2023/03/08 06:13:50;;;;;;;19.13;17.33;;;;;;;;;;5074564;28;20032;-67
2023/03/08 06:16:16;;;;;;;19.20;17.40;;;;;;;;;;5106392;22;20055;-64
2023/03/08 06:18:42;;;;;;;18.42;16.63;;;;;;;;;;5092359;28;20496;-65
2023/03/08 06:21:11;;;;;;;18.80;17.00;;;;;;;;;;5091903;28;20085;-65
2023/03/08 06:23:37;;;;;;;19.60;17.70;;;;;;;;;;5072799;28;20035;-65
2023/03/08 06:26:04;;;;;;;20.17;18.08;;;;;;;;;;5076798;28;20338;-64
2023/03/08 06:28:30;;;;;;;18.70;16.90;;;;;;;;;;5053088;28;20043;-63
2023/03/08 06:30:56;;;;;;;21.30;19.13;;;;;;;;;;5053068;28;20025;-65
2023/03/08 06:33:24;;;;;;;19.10;17.30;;;;;;;;;;5052748;28;20020;-65
2023/03/08 06:35:56;;;;;;;18.55;16.75;;;;;;;;;;5071274;28;20487;-67
2023/03/08 06:38:22;;;;;;;20.00;17.90;;;;;;;;;;5070593;28;20028;-66
2023/03/08 06:40:49;;;;;;;20.30;17.45;;;;;;;;;;5070742;28;20100;-64
2023/03/08 06:43:15;;;;;;;20.25;18.15;;;;;;;;;;5070187;28;20103;-64
2023/03/08 06:45:41;;;;;;;19.88;17.98;;;;;;;;;;5052346;28;20051;-66
2023/03/08 06:48:07;;;;;;;18.80;17.00;;;;;;;;;;5052591;28;20021;-65
2023/03/08 06:50:33;;;;;;;18.65;16.85;;;;;;;;;;5053369;28;20432;-65
2023/03/08 06:52:59;;;;;;;18.67;16.88;;;;;;;;;;5070848;28;20099;-67
2023/03/08 06:55:25;;;;;;;18.02;16.23;;;;;;;;;;5071864;28;20119;-66
2023/03/08 06:57:52;;;;;;;19.42;17.45;;;;;;;;;;5052653;28;20575;-66
2023/03/08 07:00:18;;;;;;;20.15;18.25;;;;;;;;;;5070226;28;20032;-62
2023/03/08 07:02:44;;;;;;;17.95;16.15;;;;;;;;;;5070557;28;20666;-66
2023/03/08 07:05:10;;;;;;;18.00;16.20;;;;;;;;;;5069852;28;20036;-65
2023/03/08 07:07:37;;;;;;;19.55;17.55;;;;;;;;;;5072261;28;20024;-64
2023/03/08 07:10:03;;;;;;;18.83;17.02;;;;;;;;;;5053827;28;20100;-67
2023/03/08 07:12:35;;;;;;;18.83;17.02;;;;;;;;;;5055544;28;20032;-66
2023/03/08 07:15:01;;;;;;;19.17;17.38;;;;;;;;;;5071281;28;20032;-66
2023/03/08 07:17:27;;;;;;;18.80;17.00;;;;;;;;;;5070706;28;20032;-64
2023/03/08 07:19:53;;;;;;;18.75;16.95;;;;;;;;;;5070862;28;20028;-65
2023/03/08 07:22:19;;;;;;;18.02;16.23;;;;;;;;;;5070954;28;20013;-66
2023/03/08 07:24:47;;;;;;;18.50;16.70;;;;;;;;;;5070341;28;20028;-63
2023/03/08 07:27:13;;;;;;;19.75;17.75;;;;;;;;;;5052750;28;20021;-66
2023/03/08 07:29:39;;;;;;;17.63;15.82;;;;;;;;;;5070357;28;20138;-64
2023/03/08 07:32:05;;;;;;;17.63;15.82;;;;;;;;;;5070221;28;20023;-64
2023/03/08 07:34:31;;;;;;;19.02;17.23;;;;;;;;;;5069810;28;20056;-63
2023/03/08 07:36:57;;;;;;;26.85;19.73;;;;;;;;;;5070431;28;20067;-65
2023/03/08 07:39:23;;;;;;;20.85;18.80;;;;;;;;;;5051996;28;20033;-64
2023/03/08 07:41:49;;;;;;;17.05;15.35;;;;;;;;;;5069759;28;20096;-65
2023/03/08 07:44:15;;;;;;;18.13;16.33;;;;;;;;;;5069378;28;20033;-65
2023/03/08 07:46:41;;;;;;;16.70;15.00;;;;;;;;;;5074016;28;20176;-61
2023/03/08 07:49:09;;;;;;;19.00;16.90;;;;;;;;;;5070177;28;20025;-65
2023/03/08 07:51:35;;;;;;;17.92;16.13;;;;;;;;;;5070002;28;20017;-71
2023/03/08 07:54:02;;;;;;;16.45;14.75;;;;;;;;;;5068331;28;20064;-66
2023/03/08 07:56:28;;;;;;;17.30;15.60;;;;;;;;;;5069843;28;20036;-64
2023/03/08 07:58:57;;;;;;;16.83;15.13;;;;;;;;;;5069647;28;20025;-64
2023/03/08 08:01:23;;;;;;;16.35;14.65;;;;;;;;;;5069579;28;20567;-66
2023/03/08 08:03:50;;;;;;;16.70;15.00;;;;;;;;;;5067905;28;20032;-65
2023/03/08 08:06:16;;;;;;;16.17;14.48;;;;;;;;;;5069815;28;20032;-67
2023/03/08 08:08:42;;;;;;;15.73;14.02;;;;;;;;;;5068104;28;20400;-67
2023/03/08 08:11:15;;;;;;;17.08;15.30;;;;;;;;;;5069714;28;20024;-66
2023/03/08 08:13:41;;;;;;;29.60;16.35;;;;;;;;;;5071050;28;20024;-65
2023/03/08 08:16:07;;;;;;;15.50;13.80;;;;;;;;;;5071605;28;20024;-64
2023/03/08 08:18:34;;;;;;;15.73;14.02;;;;;;;;;;5073276;28;20365;-65
2023/03/08 08:21:01;;;;;;;15.30;13.60;;;;;;;;;;5073186;28;20021;-67
2023/03/08 08:23:27;;;;;;;15.20;13.15;;;;;;;;;;5073104;28;20020;-63
2023/03/08 08:25:54;;;;;;;18.65;15.43;;;;;;;;;;5073127;28;20507;-66
2023/03/08 08:28:20;;;;;;;16.02;14.32;;;;;;;;;;5073232;28;20025;-67
2023/03/08 08:30:54;;;;;;;15.50;13.82;;;;;;;;;;5073037;28;20378;-67
2023/03/08 08:33:20;;;;;;;15.30;13.40;;;;;;;;;;5071433;28;20028;-65
2023/03/08 08:35:46;;;;;;;16.00;14.30;;;;;;;;;;5073422;28;20040;-66
2023/03/08 08:38:12;;;;;;;15.70;13.93;;;;;;;;;;5072791;28;20457;-65
2023/03/08 08:40:38;;;;;;;15.85;14.10;;;;;;;;;;5073423;28;20135;-66
2023/03/08 08:43:04;;;;;;;18.55;16.75;;;;;;;;;;5073042;28;20139;-66
2023/03/08 08:45:30;;;;;;;15.52;13.82;;;;;;;;;;5071695;28;20421;-66
2023/03/08 08:47:56;;;;;;;15.82;14.13;;;;;;;;;;5072963;28;20100;-66
2023/03/08 08:50:22;;;;;;;16.58;14.88;;;;;;;;;;5073959;28;20012;-58
2023/03/08 08:52:48;;;;;;;15.98;14.27;;;;;;;;;;5072586;28;20017;-61
2023/03/08 08:55:14;;;;;;;15.40;13.68;;;;;;;;;;5072280;28;20032;-61
2023/03/08 08:57:40;;;;;;;15.40;13.60;;;;;;;;;;5072376;28;20029;-61
2023/03/08 09:00:08;;;;;;;15.32;13.50;;;;;;;;;;5072443;28;20449;-61
2023/03/08 09:02:34;;;;;;;15.60;13.90;;;;;;;;;;5072306;28;20147;-61
2023/03/08 09:05:00;;;;;;;15.30;13.27;;;;;;;;;;5071967;28;20025;-60
2023/03/08 09:07:26;;;;;;;15.60;13.90;;;;;;;;;;5072402;28;20027;-62
2023/03/08 09:09:56;;;;;;;15.13;13.13;;;;;;;;;;5072187;28;20017;-60
2023/03/08 09:12:22;;;;;;;21.02;14.15;;;;;;;;;;5072160;28;20515;-60
2023/03/08 09:14:48;;;;;;;15.10;13.02;;;;;;;;;;5070572;28;20029;-60
2023/03/08 09:17:14;;;;;;;15.32;13.48;;;;;;;;;;5070956;28;20029;-62
2023/03/08 09:19:40;;;;;;;15.73;13.93;;;;;;;;;;5072773;28;20033;-61
2023/03/08 09:22:06;;;;;;;15.10;12.98;;;;;;;;;;5072398;28;20070;-62
2023/03/08 09:24:32;;;;;;;15.20;13.25;;;;;;;;;;5071187;28;20352;-62
2023/03/08 09:26:58;;;;;;;19.98;16.50;;;;;;;;;;5071816;28;20032;-62
2023/03/08 09:29:24;;;;;;;15.10;13.20;;;;;;;;;;5072090;28;20619;-61
2023/03/08 09:31:50;;;;;;;15.10;12.85;;;;;;;;;;5072030;28;20025;-61
2023/03/08 09:34:16;;;;;;;17.30;14.02;;;;;;;;;;5066741;28;20032;-63
2023/03/08 09:36:42;;;;;;;15.10;12.95;;;;;;;;;;5063022;28;20045;-62
2023/03/08 09:39:09;;;;;;;15.10;12.98;;;;;;;;;;5067504;28;20031;-62
2023/03/08 09:41:47;;;;;;;15.10;12.77;;;;;;;;;;5066205;28;20147;-61
2023/03/08 09:44:22;;;;;;;21.35;13.93;;;;;;;;;;5071241;28;20064;-62
2023/03/08 09:47:12;;;;;;;15.30;13.02;;;;;;;;;;5071342;28;20020;-62
2023/03/08 09:49:38;;;;;;;19.40;13.88;;;;;;;;;;5071312;28;20437;-64
2023/03/08 09:52:05;;;;;;;14.80;12.27;;;;;;;;;;5071376;28;20480;-59
2023/03/08 09:54:32;;;;;;;14.75;11.98;;;;;;;;;;5070977;28;20043;-62
2023/03/08 09:57:01;;;;;;;15.10;12.80;;;;;;;;;;5071112;28;20028;-61
2023/03/08 09:59:34;;;;;;;14.77;12.05;;;;;;;;;;5069051;28;20090;-61
2023/03/08 10:02:06;;;;;;;15.20;13.15;;;;;;;;;;5068813;28;20024;-63
2023/03/08 10:04:45;;;;;;;15.00;12.60;;;;;;;;;;5068669;28;20032;-65
2023/03/08 10:07:50;;;;;;;14.95;12.55;;;;;;;;;;5069227;28;20028;-63
2023/03/08 10:10:23;;;;;;;15.20;13.10;;;;;;;;;;4987403;28;20126;-63
2023/03/08 10:13:09;;;;;;;14.90;12.70;;;;;;;;;;4987355;28;20446;-63
2023/03/08 10:15:39;;;;;;;14.98;12.50;;;;;;;;;;5001063;28;20041;-63
2023/03/08 10:18:12;;;;;;;14.90;12.23;;;;;;;;;;5070411;28;20016;-66
2023/03/08 10:20:40;;;;;;;15.05;12.60;;;;;;;;;;5070701;28;20017;-64
2023/03/08 10:23:16;;;;;;;14.90;12.30;;;;;;;;;;5070619;28;20100;-64
2023/03/08 10:25:43;;;;;;;14.98;12.57;;;;;;;;;;5070553;28;20034;-61
2023/03/08 10:28:14;;;;;;;15.10;12.90;;;;;;;;;;5070681;28;20028;-62
2023/03/08 10:30:42;;;;;;;14.90;12.35;;;;;;;;;;5070494;28;20104;-64
2023/03/08 10:33:10;;;;;;;15.05;12.55;;;;;;;;;;5070252;28;20361;-63
2023/03/08 10:35:37;;;;;;;15.05;12.55;;;;;;;;;;5068362;28;20535;-63
2023/03/08 10:38:05;;;;;;;14.90;12.43;;;;;;;;;;5070488;28;20036;-64
2023/03/08 10:40:31;;;;;;;15.45;13.20;;;;;;;;;;5070329;28;20346;-61
2023/03/08 10:43:00;;;;;;;14.82;12.05;;;;;;;;;;5070109;28;20395;-63
2023/03/08 10:45:27;;;;;;;;;;;;;;;;;;5068904;28;20029;-62
2023/03/08 10:47:55;;;;;;;15.10;12.80;;;;;;;;;;5069995;28;19943;-59
2023/03/08 10:50:21;;;;;;;;;;;;;;;;;;5050703;28;20433;-63
2023/03/08 10:52:49;;;;;;;14.68;11.65;;;;;;;;;;5050226;28;19950;-62
2023/03/08 10:55:15;;;;;;;14.90;12.30;;;;;;;;;;5049834;28;20044;-61
2023/03/08 10:57:48;;;;;;;14.65;11.63;;;;;;;;;;5050307;28;20504;-60
2023/03/08 11:00:20;;;;;;;14.45;11.48;;;;;;;;;;5050015;28;20028;-63
2023/03/08 11:02:47;;;;;;;14.43;11.25;;;;;;;;;;5050254;28;20033;-61
2023/03/08 11:05:26;;;;;;;14.50;11.13;;;;;;;;;;5050079;28;20033;-64
2023/03/08 11:07:54;;;;;;;14.60;11.80;;;;;;;;;;5050233;28;20078;-62
2023/03/08 11:10:22;;;;;;;14.30;10.75;;;;;;;;;;5050362;28;20105;-62
2023/03/08 11:12:49;;;;;;;15.32;12.00;;;;;;;;;;5049766;28;20527;-63
2023/03/08 11:15:16;;;;;;;14.57;11.43;;;;;;;;;;5049357;28;20504;-64
2023/03/08 11:17:57;;;;;;;14.40;11.02;;;;;;;;;;5049916;28;20469;-63
2023/03/08 11:20:25;;;;;;;15.10;12.20;;;;;;;;;;5050235;28;20032;-61
2023/03/08 11:23:00;;;;;;;14.43;10.93;;;;;;;;;;5049935;28;20025;-63
2023/03/08 11:25:32;;;;;;;14.50;11.18;;;;;;;;;;5049757;28;20078;-62
2023/03/08 11:27:58;;;;;;;14.52;11.20;;;;;;;;;;5032233;28;20070;-62
2023/03/08 11:30:43;;;;;;;14.50;11.18;;;;;;;;;;5049935;28;20029;-61
2023/03/08 11:33:18;;;;;;;14.45;11.18;;;;;;;;;;5049604;28;20507;-63
2023/03/08 11:35:53;;;;;;;14.40;11.07;;;;;;;;;;5049824;28;20032;-64
2023/03/08 11:38:27;;;;;;;14.57;11.45;;;;;;;;;;5049759;28;20497;-63
2023/03/08 11:40:59;;;;;;;14.52;11.35;;;;;;;;;;5049680;28;20028;-61
2023/03/08 11:43:40;;;;;;;15.15;12.43;;;;;;;;;;5049389;28;20025;-63
2023/03/08 11:46:12;;;;;;;14.40;10.88;;;;;;;;;;5049514;28;20083;-61
2023/03/08 11:48:41;;;;;;;14.20;10.63;;;;;;;;;;5041780;28;20365;-64
2023/03/08 11:51:18;;;;;;;14.70;11.70;;;;;;;;;;5074027;28;20020;-62
2023/03/08 11:53:51;;;;;;;14.60;11.38;;;;;;;;;;5073565;28;20025;-62
2023/03/08 11:56:33;;;;;;;14.60;11.48;;;;;;;;;;5073749;28;20543;-61
2023/03/08 11:59:19;;;;;;;14.80;11.90;;;;;;;;;;5073500;28;20032;-63
2023/03/08 12:02:12;;;;;;;14.70;11.70;;;;;;;;;;5059591;28;20029;-59
2023/03/08 12:04:45;;;;;;;14.70;11.82;;;;;;;;;;5042522;28;20040;-63
2023/03/08 12:07:16;;;;;;;14.90;12.25;;;;;;;;;;5073569;28;20068;-61
2023/03/08 12:10:02;;;;;;;14.70;11.82;;;;;;;;;;5073849;28;20020;-61
2023/03/08 12:12:39;;;;;;;14.63;11.68;;;;;;;;;;5054709;28;20065;-63
2023/03/08 12:17:43;;;;;;;14.35;10.82;;;;;;;;;;5051826;28;20049;-64
2023/03/08 12:20:13;;;;;;;14.40;11.07;;;;;;;;;;5054084;28;20035;-62
2023/03/08 12:22:42;;;;;;;14.60;11.55;;;;;;;;;;5054819;28;20040;-64
2023/03/08 12:25:11;;;;;;;14.70;11.95;;;;;;;;;;5053910;28;20036;-63
2023/03/08 12:27:37;;;;;;;14.70;11.80;;;;;;;;;;5036560;28;20029;-64
2023/03/08 12:30:22;;;;;;;14.70;11.82;;;;;;;;;;5054777;28;20598;-63
2023/03/08 12:32:48;;;;;;;14.68;11.70;;;;;;;;;;5054248;28;20533;-62
2023/03/08 12:35:32;;;;;;;14.60;11.35;;;;;;;;;;5036106;28;20035;-64
2023/03/08 12:38:03;;;;;;;14.63;11.50;;;;;;;;;;5054239;28;20019;-63
2023/03/08 12:40:29;;;;;;;14.70;11.68;;;;;;;;;;5036454;28;20125;-63
2023/03/08 12:43:05;;;;;;;14.60;11.50;;;;;;;;;;5036219;28;20056;-63
2023/03/08 12:45:31;;;;;;;14.63;11.52;;;;;;;;;;5036197;28;20370;-63
2023/03/08 12:48:17;;;;;;;14.90;12.30;;;;;;;;;;5053921;28;20025;-63
2023/03/08 12:50:45;;;;;;;14.80;12.05;;;;;;;;;;5036263;28;20045;-60
2023/03/08 12:53:27;;;;;;;14.88;12.15;;;;;;;;;;5053952;28;20017;-63
2023/03/08 12:56:04;;;;;;;19.38;13.15;;;;;;;;;;5053912;28;20028;-62
2023/03/08 12:58:32;;;;;;;14.90;12.13;;;;;;;;;;5048037;28;20063;-59
2023/03/08 13:01:00;;;;;;;14.85;12.10;;;;;;;;;;5034864;28;20021;-63
2023/03/08 13:03:29;;;;;;;14.90;12.10;;;;;;;;;;5042020;28;20021;-62
2023/03/08 13:05:55;;;;;;;;;;;;;;;;;;5049121;28;20033;-65
2023/03/08 13:08:39;;;;;;;15.10;12.60;;;;;;;;;;5039386;28;20284;-67
2023/03/08 13:11:09;;;;;;;17.60;14.88;;;;;;;;;;5028717;28;20035;-66
2023/03/08 13:13:42;;;;;;;19.73;15.23;;;;;;;;;;5053091;28;20013;-65
2023/03/08 13:16:15;;;;;;;18.48;14.48;;;;;;;;;;5053103;28;20053;-66
2023/03/08 13:18:45;;;;;;;18.45;14.15;;;;;;;;;;5051908;28;20021;-66
2023/03/08 13:21:33;;;;;;;18.48;14.77;;;;;;;;;;5051777;28;20039;-62
2023/03/08 13:24:08;;;;;;;17.15;13.00;;;;;;;;;;5053655;28;20021;-67
2023/03/08 13:27:00;;;;;;;18.40;14.15;;;;;;;;;;5051848;28;20029;-66
2023/03/08 13:29:35;;;;;;;19.25;14.55;;;;;;;;;;5046740;28;20037;-66
2023/03/08 13:32:07;;;;;;;17.80;13.60;;;;;;;;;;5047825;28;20024;-64
2023/03/08 13:34:34;;;;;;;17.95;13.30;;;;;;;;;;5052667;28;20013;-66
2023/03/08 13:37:01;;;;;;;17.55;13.48;;;;;;;;;;5051697;28;20029;-67
2023/03/08 13:39:32;;;;;;;17.02;12.82;;;;;;;;;;5051752;28;20052;-67
2023/03/08 13:42:05;;;;;;;17.65;13.35;;;;;;;;;;5051603;28;20013;-66
2023/03/08 13:44:32;;;;;;;18.83;14.30;;;;;;;;;;5034264;28;20025;-66
2023/03/08 13:47:02;;;;;;;19.17;13.20;;;;;;;;;;5052612;28;20049;-64
2023/03/08 13:49:31;;;;;;;17.63;13.90;;;;;;;;;;5052700;28;20028;-65
2023/03/08 13:51:58;;;;;;;18.42;13.93;;;;;;;;;;5052888;28;20036;-65
2023/03/08 13:54:28;;;;;;;18.85;14.15;;;;;;;;;;5053005;28;20036;-64
2023/03/08 13:56:55;;;;;;;20.58;15.00;;;;;;;;;;5053051;28;20038;-64
2023/03/08 13:59:21;;;;;;;20.17;14.77;;;;;;;;;;5052837;28;20029;-66
2023/03/08 14:01:48;;;;;;;19.02;14.85;;;;;;;;;;5053223;28;20068;-66
2023/03/08 14:04:18;;;;;;;20.17;15.35;;;;;;;;;;5052387;28;20519;-66
2023/03/08 14:06:50;;;;;;;19.05;14.07;;;;;;;;;;5051199;28;20029;-67
2023/03/08 14:09:17;;;;;;;17.77;13.85;;;;;;;;;;5052789;28;20017;-66
2023/03/08 14:11:43;;;;;;;18.35;14.40;;;;;;;;;;5050533;28;20045;-66
2023/03/08 14:14:18;;;;;;;18.10;13.63;;;;;;;;;;5049626;28;20028;-67
2023/03/08 14:16:45;;;;;;;17.52;13.82;;;;;;;;;;5049833;28;20039;-65
2023/03/08 14:19:14;;;;;;;17.92;14.40;;;;;;;;;;5052138;28;20024;-66
2023/03/08 14:21:51;;;;;;;17.10;13.60;;;;;;;;;;5034258;28;20091;-65
2023/03/08 14:24:22;;;;;;;18.30;14.55;;;;;;;;;;5033897;28;20053;-67
2023/03/08 14:27:14;;;;;;;19.63;14.05;;;;;;;;;;5025232;28;20029;-66
2023/03/08 14:29:41;;;;;;;17.40;13.32;;;;;;;;;;5014685;28;20184;-66